sensor_id;sensor_type;location;lat;lon;timestamp;temperature;humidity
52879;DHT22;38747;53.140;6.498;2023-03-04T00:00:22;5.60;99.90
52879;DHT22;38747;53.140;6.498;2023-03-04T00:02:48;5.60;99.90
52879;DHT22;38747;53.140;6.498;2023-03-04T00:05:13;5.60;99.90
52879;DHT22;38747;53.140;6.498;2023-03-04T00:07:39;5.60;99.90
52879;DHT22;38747;53.140;6.498;2023-03-04T00:10:05;5.60;99.90
52879;DHT22;38747;53.140;6.498;2023-03-04T00:12:31;5.60;99.90
52879;DHT22;38747;53.140;6.498;2023-03-04T00:14:56;5.60;99.90
52879;DHT22;38747;53.140;6.498;2023-03-04T00:17:22;5.60;99.90
52879;DHT22;38747;53.140;6.498;2023-03-04T00:19:48;5.60;99.90
52879;DHT22;38747;53.140;6.498;2023-03-04T00:22:14;5.60;99.90
52879;DHT22;38747;53.140;6.498;2023-03-04T00:24:40;5.60;99.90
52879;DHT22;38747;53.140;6.498;2023-03-04T00:27:05;5.60;99.90
52879;DHT22;38747;53.140;6.498;2023-03-04T00:29:31;5.60;99.90
52879;DHT22;38747;53.140;6.498;2023-03-04T00:31:56;5.60;99.90
52879;DHT22;38747;53.140;6.498;2023-03-04T00:34:22;5.60;99.90
52879;DHT22;38747;53.140;6.498;2023-03-04T00:36:48;5.60;99.90
52879;DHT22;38747;53.140;6.498;2023-03-04T00:39:13;5.60;99.90
52879;DHT22;38747;53.140;6.498;2023-03-04T00:41:39;5.60;99.90
52879;DHT22;38747;53.140;6.498;2023-03-04T00:44:05;5.60;99.90
52879;DHT22;38747;53.140;6.498;2023-03-04T00:46:31;5.60;99.90
52879;DHT22;38747;53.140;6.498;2023-03-04T00:48:57;5.60;99.90
52879;DHT22;38747;53.140;6.498;2023-03-04T00:51:22;5.60;99.90
52879;DHT22;38747;53.140;6.498;2023-03-04T00:53:48;5.60;99.90
52879;DHT22;38747;53.140;6.498;2023-03-04T00:56:14;5.60;99.90
52879;DHT22;38747;53.140;6.498;2023-03-04T00:58:39;5.60;99.90
52879;DHT22;38747;53.140;6.498;2023-03-04T01:01:06;5.60;99.90
52879;DHT22;38747;53.140;6.498;2023-03-04T01:03:32;5.50;99.90
52879;DHT22;38747;53.140;6.498;2023-03-04T01:05:58;5.50;99.90
52879;DHT22;38747;53.140;6.498;2023-03-04T01:08:24;5.60;99.90
52879;DHT22;38747;53.140;6.498;2023-03-04T01:10:49;5.50;99.90
52879;DHT22;38747;53.140;6.498;2023-03-04T01:13:16;5.50;99.90
52879;DHT22;38747;53.140;6.498;2023-03-04T01:15:41;5.60;99.90
52879;DHT22;38747;53.140;6.498;2023-03-04T01:18:07;5.50;99.90
52879;DHT22;38747;53.140;6.498;2023-03-04T01:20:33;5.50;99.90
52879;DHT22;38747;53.140;6.498;2023-03-04T01:22:59;5.50;99.90
52879;DHT22;38747;53.140;6.498;2023-03-04T01:25:24;5.50;99.90
52879;DHT22;38747;53.140;6.498;2023-03-04T01:27:50;5.50;99.90
52879;DHT22;38747;53.140;6.498;2023-03-04T01:30:16;5.60;99.90
52879;DHT22;38747;53.140;6.498;2023-03-04T01:32:41;5.60;99.90
52879;DHT22;38747;53.140;6.498;2023-03-04T01:35:07;5.50;99.90
52879;DHT22;38747;53.140;6.498;2023-03-04T01:37:33;5.50;99.90
52879;DHT22;38747;53.140;6.498;2023-03-04T01:39:59;5.60;99.90
52879;DHT22;38747;53.140;6.498;2023-03-04T01:42:25;5.60;99.90
52879;DHT22;38747;53.140;6.498;2023-03-04T01:44:52;5.60;99.90
52879;DHT22;38747;53.140;6.498;2023-03-04T01:47:18;5.60;99.90
52879;DHT22;38747;53.140;6.498;2023-03-04T01:49:54;5.50;99.90
52879;DHT22;38747;53.140;6.498;2023-03-04T01:52:20;5.50;99.90
52879;DHT22;38747;53.140;6.498;2023-03-04T01:54:46;5.50;99.90
52879;DHT22;38747;53.140;6.498;2023-03-04T01:57:17;5.50;99.90
52879;DHT22;38747;53.140;6.498;2023-03-04T01:59:43;5.50;99.90
52879;DHT22;38747;53.140;6.498;2023-03-04T02:02:09;5.40;99.90
52879;DHT22;38747;53.140;6.498;2023-03-04T02:04:35;5.40;99.90
52879;DHT22;38747;53.140;6.498;2023-03-04T02:07:02;5.40;99.90
52879;DHT22;38747;53.140;6.498;2023-03-04T02:09:29;5.30;99.90
52879;DHT22;38747;53.140;6.498;2023-03-04T02:11:56;5.30;99.90
52879;DHT22;38747;53.140;6.498;2023-03-04T02:14:22;5.30;99.90
52879;DHT22;38747;53.140;6.498;2023-03-04T02:16:48;5.30;99.90
52879;DHT22;38747;53.140;6.498;2023-03-04T02:19:55;5.30;99.90
52879;DHT22;38747;53.140;6.498;2023-03-04T02:22:25;5.30;99.90
52879;DHT22;38747;53.140;6.498;2023-03-04T02:25:21;5.30;99.90
52879;DHT22;38747;53.140;6.498;2023-03-04T02:27:44;5.40;99.90
52879;DHT22;38747;53.140;6.498;2023-03-04T02:30:10;5.30;99.90
52879;DHT22;38747;53.140;6.498;2023-03-04T02:32:37;5.40;99.90
52879;DHT22;38747;53.140;6.498;2023-03-04T02:35:03;5.40;99.90
52879;DHT22;38747;53.140;6.498;2023-03-04T02:37:28;5.30;99.90
52879;DHT22;38747;53.140;6.498;2023-03-04T02:39:54;5.30;99.90
52879;DHT22;38747;53.140;6.498;2023-03-04T02:42:19;5.30;99.90
52879;DHT22;38747;53.140;6.498;2023-03-04T02:44:46;5.40;99.90
52879;DHT22;38747;53.140;6.498;2023-03-04T02:47:16;5.40;99.90
52879;DHT22;38747;53.140;6.498;2023-03-04T02:49:45;5.40;99.90
52879;DHT22;38747;53.140;6.498;2023-03-04T02:52:17;5.30;99.90
52879;DHT22;38747;53.140;6.498;2023-03-04T02:54:44;5.40;99.90
52879;DHT22;38747;53.140;6.498;2023-03-04T02:57:11;5.40;99.90
52879;DHT22;38747;53.140;6.498;2023-03-04T02:59:38;5.40;99.90
52879;DHT22;38747;53.140;6.498;2023-03-04T03:02:04;5.40;99.90
52879;DHT22;38747;53.140;6.498;2023-03-04T03:04:30;5.40;99.90
52879;DHT22;38747;53.140;6.498;2023-03-04T03:06:56;5.40;99.90
52879;DHT22;38747;53.140;6.498;2023-03-04T03:09:21;5.40;99.90
52879;DHT22;38747;53.140;6.498;2023-03-04T03:11:47;5.30;99.90
52879;DHT22;38747;53.140;6.498;2023-03-04T03:14:13;5.30;99.90
52879;DHT22;38747;53.140;6.498;2023-03-04T03:16:38;5.30;99.90
52879;DHT22;38747;53.140;6.498;2023-03-04T03:19:04;5.30;99.90
52879;DHT22;38747;53.140;6.498;2023-03-04T03:21:30;5.30;99.90
52879;DHT22;38747;53.140;6.498;2023-03-04T03:23:55;5.30;99.90
52879;DHT22;38747;53.140;6.498;2023-03-04T03:26:21;5.30;99.90
52879;DHT22;38747;53.140;6.498;2023-03-04T03:28:46;5.30;99.90
52879;DHT22;38747;53.140;6.498;2023-03-04T03:31:12;5.30;99.90
52879;DHT22;38747;53.140;6.498;2023-03-04T03:33:38;5.30;99.90
52879;DHT22;38747;53.140;6.498;2023-03-04T03:36:05;5.40;99.90
52879;DHT22;38747;53.140;6.498;2023-03-04T03:38:30;5.40;99.90
52879;DHT22;38747;53.140;6.498;2023-03-04T03:40:56;5.40;99.90
52879;DHT22;38747;53.140;6.498;2023-03-04T03:43:22;5.40;99.90
52879;DHT22;38747;53.140;6.498;2023-03-04T03:45:47;5.40;99.90
52879;DHT22;38747;53.140;6.498;2023-03-04T03:48:13;5.40;99.90
52879;DHT22;38747;53.140;6.498;2023-03-04T03:50:38;5.40;99.90
52879;DHT22;38747;53.140;6.498;2023-03-04T03:53:04;5.40;99.90
52879;DHT22;38747;53.140;6.498;2023-03-04T03:55:30;5.40;99.90
52879;DHT22;38747;53.140;6.498;2023-03-04T03:57:56;5.30;99.90
52879;DHT22;38747;53.140;6.498;2023-03-04T04:00:21;5.30;99.90
52879;DHT22;38747;53.140;6.498;2023-03-04T04:02:47;5.30;99.90
52879;DHT22;38747;53.140;6.498;2023-03-04T04:05:13;5.30;99.90
52879;DHT22;38747;53.140;6.498;2023-03-04T04:07:39;5.30;99.90
52879;DHT22;38747;53.140;6.498;2023-03-04T04:10:06;5.30;99.90
52879;DHT22;38747;53.140;6.498;2023-03-04T04:12:33;5.30;99.90
52879;DHT22;38747;53.140;6.498;2023-03-04T04:14:58;5.30;99.90
52879;DHT22;38747;53.140;6.498;2023-03-04T04:17:24;5.30;99.90
52879;DHT22;38747;53.140;6.498;2023-03-04T04:19:49;5.30;99.90
52879;DHT22;38747;53.140;6.498;2023-03-04T04:22:18;5.30;99.90
52879;DHT22;38747;53.140;6.498;2023-03-04T04:24:44;5.30;99.90
52879;DHT22;38747;53.140;6.498;2023-03-04T04:27:10;5.30;99.90
52879;DHT22;38747;53.140;6.498;2023-03-04T04:29:36;5.30;99.90
52879;DHT22;38747;53.140;6.498;2023-03-04T04:32:02;5.30;99.90
52879;DHT22;38747;53.140;6.498;2023-03-04T04:34:28;5.30;99.90
52879;DHT22;38747;53.140;6.498;2023-03-04T04:36:54;5.30;99.90
52879;DHT22;38747;53.140;6.498;2023-03-04T04:39:20;5.30;99.90
52879;DHT22;38747;53.140;6.498;2023-03-04T04:41:46;5.20;99.90
52879;DHT22;38747;53.140;6.498;2023-03-04T04:44:12;5.30;99.90
52879;DHT22;38747;53.140;6.498;2023-03-04T04:46:38;5.30;99.90
52879;DHT22;38747;53.140;6.498;2023-03-04T04:49:05;5.30;99.90
52879;DHT22;38747;53.140;6.498;2023-03-04T04:51:31;5.20;99.90
52879;DHT22;38747;53.140;6.498;2023-03-04T04:53:59;5.30;99.90
52879;DHT22;38747;53.140;6.498;2023-03-04T04:56:25;5.30;99.90
52879;DHT22;38747;53.140;6.498;2023-03-04T04:58:53;5.30;99.90
52879;DHT22;38747;53.140;6.498;2023-03-04T05:01:18;5.20;99.90
52879;DHT22;38747;53.140;6.498;2023-03-04T05:03:44;5.30;99.90
52879;DHT22;38747;53.140;6.498;2023-03-04T05:06:11;5.30;99.90
52879;DHT22;38747;53.140;6.498;2023-03-04T05:08:37;5.30;99.90
52879;DHT22;38747;53.140;6.498;2023-03-04T05:11:06;5.30;99.90
52879;DHT22;38747;53.140;6.498;2023-03-04T05:13:32;5.30;99.90
52879;DHT22;38747;53.140;6.498;2023-03-04T05:15:58;5.20;99.90
52879;DHT22;38747;53.140;6.498;2023-03-04T05:18:24;5.20;99.90
52879;DHT22;38747;53.140;6.498;2023-03-04T05:20:55;5.20;99.90
52879;DHT22;38747;53.140;6.498;2023-03-04T05:23:22;5.20;99.90
52879;DHT22;38747;53.140;6.498;2023-03-04T05:25:48;5.20;99.90
52879;DHT22;38747;53.140;6.498;2023-03-04T05:28:14;5.20;99.90
52879;DHT22;38747;53.140;6.498;2023-03-04T05:30:41;5.20;99.90
52879;DHT22;38747;53.140;6.498;2023-03-04T05:33:07;5.20;99.90
52879;DHT22;38747;53.140;6.498;2023-03-04T05:35:38;5.20;99.90
52879;DHT22;38747;53.140;6.498;2023-03-04T05:38:05;5.20;99.90
52879;DHT22;38747;53.140;6.498;2023-03-04T05:40:32;5.30;99.90
52879;DHT22;38747;53.140;6.498;2023-03-04T05:42:57;5.30;99.90
52879;DHT22;38747;53.140;6.498;2023-03-04T05:45:24;5.30;99.90
52879;DHT22;38747;53.140;6.498;2023-03-04T05:47:50;5.30;99.90
52879;DHT22;38747;53.140;6.498;2023-03-04T05:50:16;5.30;99.90
52879;DHT22;38747;53.140;6.498;2023-03-04T05:52:42;5.30;99.90
52879;DHT22;38747;53.140;6.498;2023-03-04T05:55:08;5.30;99.90
52879;DHT22;38747;53.140;6.498;2023-03-04T05:57:33;5.40;99.90
52879;DHT22;38747;53.140;6.498;2023-03-04T05:59:59;5.30;99.90
52879;DHT22;38747;53.140;6.498;2023-03-04T06:02:25;5.40;99.90
52879;DHT22;38747;53.140;6.498;2023-03-04T06:04:50;5.40;99.90
52879;DHT22;38747;53.140;6.498;2023-03-04T06:07:16;5.30;99.90
52879;DHT22;38747;53.140;6.498;2023-03-04T06:09:42;5.30;99.90
52879;DHT22;38747;53.140;6.498;2023-03-04T06:12:12;5.30;99.90
52879;DHT22;38747;53.140;6.498;2023-03-04T06:14:38;5.30;99.90
52879;DHT22;38747;53.140;6.498;2023-03-04T06:17:03;5.30;99.90
52879;DHT22;38747;53.140;6.498;2023-03-04T06:19:29;5.30;99.90
52879;DHT22;38747;53.140;6.498;2023-03-04T06:21:55;5.30;99.90
52879;DHT22;38747;53.140;6.498;2023-03-04T06:24:20;5.30;99.90
52879;DHT22;38747;53.140;6.498;2023-03-04T06:26:46;5.30;99.90
52879;DHT22;38747;53.140;6.498;2023-03-04T06:29:12;5.30;99.90
52879;DHT22;38747;53.140;6.498;2023-03-04T06:31:37;5.30;99.90
52879;DHT22;38747;53.140;6.498;2023-03-04T06:34:06;5.30;99.90
52879;DHT22;38747;53.140;6.498;2023-03-04T06:36:32;5.30;99.90
52879;DHT22;38747;53.140;6.498;2023-03-04T06:38:57;5.30;99.90
52879;DHT22;38747;53.140;6.498;2023-03-04T06:41:23;5.30;99.90
52879;DHT22;38747;53.140;6.498;2023-03-04T06:43:48;5.30;99.90
52879;DHT22;38747;53.140;6.498;2023-03-04T06:46:14;5.30;99.90
52879;DHT22;38747;53.140;6.498;2023-03-04T06:48:40;5.30;99.90
52879;DHT22;38747;53.140;6.498;2023-03-04T06:51:10;5.30;99.90
52879;DHT22;38747;53.140;6.498;2023-03-04T06:53:36;5.30;99.90
52879;DHT22;38747;53.140;6.498;2023-03-04T06:56:02;5.40;99.90
52879;DHT22;38747;53.140;6.498;2023-03-04T06:58:27;5.40;99.90
52879;DHT22;38747;53.140;6.498;2023-03-04T07:00:53;5.40;99.90
52879;DHT22;38747;53.140;6.498;2023-03-04T07:03:19;5.40;99.90
52879;DHT22;38747;53.140;6.498;2023-03-04T07:05:45;5.40;99.90
52879;DHT22;38747;53.140;6.498;2023-03-04T07:08:10;5.40;99.90
52879;DHT22;38747;53.140;6.498;2023-03-04T07:10:36;5.50;99.90
52879;DHT22;38747;53.140;6.498;2023-03-04T07:13:02;5.50;99.90
52879;DHT22;38747;53.140;6.498;2023-03-04T07:15:27;5.60;99.90
52879;DHT22;38747;53.140;6.498;2023-03-04T07:17:53;5.60;99.90
52879;DHT22;38747;53.140;6.498;2023-03-04T07:20:19;5.70;99.90
52879;DHT22;38747;53.140;6.498;2023-03-04T07:22:45;5.60;99.90
52879;DHT22;38747;53.140;6.498;2023-03-04T07:25:10;5.60;99.90
52879;DHT22;38747;53.140;6.498;2023-03-04T07:27:36;5.60;99.90
52879;DHT22;38747;53.140;6.498;2023-03-04T07:30:04;5.60;99.90
52879;DHT22;38747;53.140;6.498;2023-03-04T07:32:30;5.50;99.90
52879;DHT22;38747;53.140;6.498;2023-03-04T07:34:58;5.50;99.90
52879;DHT22;38747;53.140;6.498;2023-03-04T07:37:23;5.50;99.90
52879;DHT22;38747;53.140;6.498;2023-03-04T07:39:49;5.50;99.90
52879;DHT22;38747;53.140;6.498;2023-03-04T07:42:14;5.50;99.90
52879;DHT22;38747;53.140;6.498;2023-03-04T07:44:40;5.50;99.90
52879;DHT22;38747;53.140;6.498;2023-03-04T07:47:06;5.60;99.90
52879;DHT22;38747;53.140;6.498;2023-03-04T07:49:31;5.70;99.90
52879;DHT22;38747;53.140;6.498;2023-03-04T07:51:57;5.70;99.90
52879;DHT22;38747;53.140;6.498;2023-03-04T07:54:22;5.80;99.90
52879;DHT22;38747;53.140;6.498;2023-03-04T07:56:48;5.80;99.90
52879;DHT22;38747;53.140;6.498;2023-03-04T07:59:13;5.90;99.90
52879;DHT22;38747;53.140;6.498;2023-03-04T08:01:39;5.90;99.90
52879;DHT22;38747;53.140;6.498;2023-03-04T08:04:05;5.90;99.90
52879;DHT22;38747;53.140;6.498;2023-03-04T08:06:32;6.00;99.90
52879;DHT22;38747;53.140;6.498;2023-03-04T08:09:00;6.00;99.90
52879;DHT22;38747;53.140;6.498;2023-03-04T08:11:27;6.00;99.90
52879;DHT22;38747;53.140;6.498;2023-03-04T08:13:53;6.00;99.90
52879;DHT22;38747;53.140;6.498;2023-03-04T08:16:20;5.90;99.90
52879;DHT22;38747;53.140;6.498;2023-03-04T08:18:51;5.80;99.90
52879;DHT22;38747;53.140;6.498;2023-03-04T08:21:17;5.70;99.90
52879;DHT22;38747;53.140;6.498;2023-03-04T08:23:47;5.70;99.90
52879;DHT22;38747;53.140;6.498;2023-03-04T08:26:25;5.70;99.90
52879;DHT22;38747;53.140;6.498;2023-03-04T08:28:52;5.70;99.90
52879;DHT22;38747;53.140;6.498;2023-03-04T08:31:18;5.70;99.90
52879;DHT22;38747;53.140;6.498;2023-03-04T08:33:44;5.80;99.90
52879;DHT22;38747;53.140;6.498;2023-03-04T08:36:10;5.70;99.90
52879;DHT22;38747;53.140;6.498;2023-03-04T08:38:35;5.80;99.90
52879;DHT22;38747;53.140;6.498;2023-03-04T08:41:01;5.80;99.90
52879;DHT22;38747;53.140;6.498;2023-03-04T08:43:28;5.90;99.90
52879;DHT22;38747;53.140;6.498;2023-03-04T08:45:54;5.90;99.90
52879;DHT22;38747;53.140;6.498;2023-03-04T08:48:21;6.00;99.90
52879;DHT22;38747;53.140;6.498;2023-03-04T08:50:47;6.00;99.90
52879;DHT22;38747;53.140;6.498;2023-03-04T08:53:14;6.00;99.90
52879;DHT22;38747;53.140;6.498;2023-03-04T08:55:40;6.00;99.90
52879;DHT22;38747;53.140;6.498;2023-03-04T08:58:06;5.90;99.90
52879;DHT22;38747;53.140;6.498;2023-03-04T09:00:36;5.90;99.90
52879;DHT22;38747;53.140;6.498;2023-03-04T09:03:02;5.90;99.90
52879;DHT22;38747;53.140;6.498;2023-03-04T09:05:29;5.80;99.90
52879;DHT22;38747;53.140;6.498;2023-03-04T09:07:55;5.80;99.90
52879;DHT22;38747;53.140;6.498;2023-03-04T09:10:20;5.80;99.90
52879;DHT22;38747;53.140;6.498;2023-03-04T09:12:46;5.90;99.90
52879;DHT22;38747;53.140;6.498;2023-03-04T09:15:12;5.90;99.90
52879;DHT22;38747;53.140;6.498;2023-03-04T09:17:38;5.90;99.90
52879;DHT22;38747;53.140;6.498;2023-03-04T09:20:06;6.00;99.90
52879;DHT22;38747;53.140;6.498;2023-03-04T09:22:34;6.00;99.90
52879;DHT22;38747;53.140;6.498;2023-03-04T09:25:00;6.10;99.90
52879;DHT22;38747;53.140;6.498;2023-03-04T09:27:26;6.20;99.90
52879;DHT22;38747;53.140;6.498;2023-03-04T09:29:51;6.20;99.90
52879;DHT22;38747;53.140;6.498;2023-03-04T09:32:17;6.20;99.90
52879;DHT22;38747;53.140;6.498;2023-03-04T09:34:43;6.30;99.90
52879;DHT22;38747;53.140;6.498;2023-03-04T09:37:08;6.40;99.90
52879;DHT22;38747;53.140;6.498;2023-03-04T09:39:34;6.40;99.90
52879;DHT22;38747;53.140;6.498;2023-03-04T09:42:00;6.50;99.90
52879;DHT22;38747;53.140;6.498;2023-03-04T09:44:27;6.50;99.90
52879;DHT22;38747;53.140;6.498;2023-03-04T09:46:56;6.50;99.90
52879;DHT22;38747;53.140;6.498;2023-03-04T09:49:23;6.50;99.90
52879;DHT22;38747;53.140;6.498;2023-03-04T09:52:29;6.40;99.90
52879;DHT22;38747;53.140;6.498;2023-03-04T10:00:18;6.40;99.90
52879;DHT22;38747;53.140;6.498;2023-03-04T10:05:59;6.40;99.90
52879;DHT22;38747;53.140;6.498;2023-03-04T10:10:56;6.50;99.90
52879;DHT22;38747;53.140;6.498;2023-03-04T10:13:30;6.60;99.90
52879;DHT22;38747;53.140;6.498;2023-03-04T10:15:59;6.70;99.90
52879;DHT22;38747;53.140;6.498;2023-03-04T10:18:47;6.80;99.90
52879;DHT22;38747;53.140;6.498;2023-03-04T10:23:45;6.90;99.90
52879;DHT22;38747;53.140;6.498;2023-03-04T10:26:15;6.90;99.90
52879;DHT22;38747;53.140;6.498;2023-03-04T10:28:41;6.80;99.90
52879;DHT22;38747;53.140;6.498;2023-03-04T10:33:59;6.70;99.90
52879;DHT22;38747;53.140;6.498;2023-03-04T10:38:58;6.60;99.90
52879;DHT22;38747;53.140;6.498;2023-03-04T10:41:27;6.60;99.90
52879;DHT22;38747;53.140;6.498;2023-03-04T10:44:03;6.50;99.90
52879;DHT22;38747;53.140;6.498;2023-03-04T10:46:30;6.50;99.90
52879;DHT22;38747;53.140;6.498;2023-03-04T10:48:57;6.50;99.90
52879;DHT22;38747;53.140;6.498;2023-03-04T10:51:27;6.60;99.90
52879;DHT22;38747;53.140;6.498;2023-03-04T10:54:03;6.60;99.90
52879;DHT22;38747;53.140;6.498;2023-03-04T10:56:36;6.70;99.90
52879;DHT22;38747;53.140;6.498;2023-03-04T11:07:23;7.00;99.90
52879;DHT22;38747;53.140;6.498;2023-03-04T11:09:49;7.10;99.90
52879;DHT22;38747;53.140;6.498;2023-03-04T11:12:18;7.10;99.90
52879;DHT22;38747;53.140;6.498;2023-03-04T11:14:50;7.00;99.90
52879;DHT22;38747;53.140;6.498;2023-03-04T11:17:25;7.00;99.90
52879;DHT22;38747;53.140;6.498;2023-03-04T11:20:04;7.10;99.90
52879;DHT22;38747;53.140;6.498;2023-03-04T11:22:34;7.10;99.90
52879;DHT22;38747;53.140;6.498;2023-03-04T11:25:06;7.20;99.90
52879;DHT22;38747;53.140;6.498;2023-03-04T11:30:26;7.20;99.90
52879;DHT22;38747;53.140;6.498;2023-03-04T11:32:58;7.10;99.90
52879;DHT22;38747;53.140;6.498;2023-03-04T11:35:36;7.10;99.90
52879;DHT22;38747;53.140;6.498;2023-03-04T11:38:21;7.10;99.90
52879;DHT22;38747;53.140;6.498;2023-03-04T11:40:55;7.10;99.90
52879;DHT22;38747;53.140;6.498;2023-03-04T11:43:35;7.10;99.90
52879;DHT22;38747;53.140;6.498;2023-03-04T11:57:07;7.10;99.90
52879;DHT22;38747;53.140;6.498;2023-03-04T12:02:13;6.90;99.90
52879;DHT22;38747;53.140;6.498;2023-03-04T12:07:42;6.60;99.90
52879;DHT22;38747;53.140;6.498;2023-03-04T12:10:25;6.70;99.90
52879;DHT22;38747;53.140;6.498;2023-03-04T12:15:53;7.00;99.90
52879;DHT22;38747;53.140;6.498;2023-03-04T12:32:13;7.20;99.90
52879;DHT22;38747;53.140;6.498;2023-03-04T12:43:25;6.50;99.90
52879;DHT22;38747;53.140;6.498;2023-03-04T12:49:11;6.30;99.90
52879;DHT22;38747;53.140;6.498;2023-03-04T12:51:48;6.30;99.90
52879;DHT22;38747;53.140;6.498;2023-03-04T12:54:45;6.40;99.90
52879;DHT22;38747;53.140;6.498;2023-03-04T12:57:16;6.50;99.90
52879;DHT22;38747;53.140;6.498;2023-03-04T12:59:48;6.80;99.90
52879;DHT22;38747;53.140;6.498;2023-03-04T13:02:41;7.00;99.90
52879;DHT22;38747;53.140;6.498;2023-03-04T13:05:42;7.20;99.90
52879;DHT22;38747;53.140;6.498;2023-03-04T13:16:43;6.50;99.90
52879;DHT22;38747;53.140;6.498;2023-03-04T13:22:52;6.30;99.90
52879;DHT22;38747;53.140;6.498;2023-03-04T13:28:29;6.10;99.90
52879;DHT22;38747;53.140;6.498;2023-03-04T13:41:13;5.90;99.90
52879;DHT22;38747;53.140;6.498;2023-03-04T13:56:40;6.20;99.90
52879;DHT22;38747;53.140;6.498;2023-03-04T14:01:56;6.30;99.90
52879;DHT22;38747;53.140;6.498;2023-03-04T14:04:38;6.30;99.90
52879;DHT22;38747;53.140;6.498;2023-03-04T14:07:31;6.30;99.90
52879;DHT22;38747;53.140;6.498;2023-03-04T14:10:03;6.30;99.90
52879;DHT22;38747;53.140;6.498;2023-03-04T14:12:35;6.40;99.90
52879;DHT22;38747;53.140;6.498;2023-03-04T14:17:38;6.20;99.90
52879;DHT22;38747;53.140;6.498;2023-03-04T14:20:26;6.20;99.90
52879;DHT22;38747;53.140;6.498;2023-03-04T14:22:53;6.20;99.90
52879;DHT22;38747;53.140;6.498;2023-03-04T14:25:28;6.20;99.90
52879;DHT22;38747;53.140;6.498;2023-03-04T14:28:15;6.30;99.90
52879;DHT22;38747;53.140;6.498;2023-03-04T14:30:51;6.30;99.90
52879;DHT22;38747;53.140;6.498;2023-03-04T14:33:21;6.40;99.90
52879;DHT22;38747;53.140;6.498;2023-03-04T14:35:52;6.30;99.90
52879;DHT22;38747;53.140;6.498;2023-03-04T14:38:33;6.30;99.90
52879;DHT22;38747;53.140;6.498;2023-03-04T14:43:33;6.20;99.90
52879;DHT22;38747;53.140;6.498;2023-03-04T14:46:01;6.20;99.90
52879;DHT22;38747;53.140;6.498;2023-03-04T14:48:32;6.20;99.90
52879;DHT22;38747;53.140;6.498;2023-03-04T14:51:00;6.30;99.90
52879;DHT22;38747;53.140;6.498;2023-03-04T14:53:31;6.30;99.90
52879;DHT22;38747;53.140;6.498;2023-03-04T14:58:31;6.30;99.90
52879;DHT22;38747;53.140;6.498;2023-03-04T15:03:33;6.00;99.90
52879;DHT22;38747;53.140;6.498;2023-03-04T15:06:16;5.90;99.90
52879;DHT22;38747;53.140;6.498;2023-03-04T15:08:43;5.80;99.90
52879;DHT22;38747;53.140;6.498;2023-03-04T15:11:20;5.70;99.90
52879;DHT22;38747;53.140;6.498;2023-03-04T15:13:49;5.70;99.90
52879;DHT22;38747;53.140;6.498;2023-03-04T15:16:17;5.70;99.90
52879;DHT22;38747;53.140;6.498;2023-03-04T15:18:59;5.80;99.90
52879;DHT22;38747;53.140;6.498;2023-03-04T15:21:39;5.80;99.90
52879;DHT22;38747;53.140;6.498;2023-03-04T15:24:08;5.70;99.90
52879;DHT22;38747;53.140;6.498;2023-03-04T15:26:40;5.70;99.90
52879;DHT22;38747;53.140;6.498;2023-03-04T15:29:25;5.70;99.90
52879;DHT22;38747;53.140;6.498;2023-03-04T15:31:50;5.60;99.90
52879;DHT22;38747;53.140;6.498;2023-03-04T15:34:18;5.60;99.90
52879;DHT22;38747;53.140;6.498;2023-03-04T15:36:46;5.60;99.90
52879;DHT22;38747;53.140;6.498;2023-03-04T15:39:14;5.70;99.90
52879;DHT22;38747;53.140;6.498;2023-03-04T15:41:41;5.60;99.90
52879;DHT22;38747;53.140;6.498;2023-03-04T15:44:07;5.60;99.90
52879;DHT22;38747;53.140;6.498;2023-03-04T15:46:33;5.60;99.90
52879;DHT22;38747;53.140;6.498;2023-03-04T15:48:59;5.60;99.90
52879;DHT22;38747;53.140;6.498;2023-03-04T15:51:25;5.50;99.90
52879;DHT22;38747;53.140;6.498;2023-03-04T15:53:53;5.50;99.90
52879;DHT22;38747;53.140;6.498;2023-03-04T15:56:28;5.50;99.90
52879;DHT22;38747;53.140;6.498;2023-03-04T15:58:56;5.20;99.90
52879;DHT22;38747;53.140;6.498;2023-03-04T16:01:24;5.10;99.90
52879;DHT22;38747;53.140;6.498;2023-03-04T16:03:50;4.80;99.90
52879;DHT22;38747;53.140;6.498;2023-03-04T16:06:17;4.60;99.90
52879;DHT22;38747;53.140;6.498;2023-03-04T16:08:46;4.60;99.90
52879;DHT22;38747;53.140;6.498;2023-03-04T16:11:20;4.60;99.90
52879;DHT22;38747;53.140;6.498;2023-03-04T16:13:47;4.50;99.90
52879;DHT22;38747;53.140;6.498;2023-03-04T16:16:13;4.50;99.90
52879;DHT22;38747;53.140;6.498;2023-03-04T16:18:40;4.50;99.90
52879;DHT22;38747;53.140;6.498;2023-03-04T16:21:07;4.50;99.90
52879;DHT22;38747;53.140;6.498;2023-03-04T16:23:39;4.50;99.90
52879;DHT22;38747;53.140;6.498;2023-03-04T16:26:13;4.50;99.90
52879;DHT22;38747;53.140;6.498;2023-03-04T16:28:39;4.50;99.90
52879;DHT22;38747;53.140;6.498;2023-03-04T16:31:04;4.50;99.90
52879;DHT22;38747;53.140;6.498;2023-03-04T16:33:30;4.50;99.90
52879;DHT22;38747;53.140;6.498;2023-03-04T16:35:56;4.50;99.90
52879;DHT22;38747;53.140;6.498;2023-03-04T16:38:30;4.60;99.90
52879;DHT22;38747;53.140;6.498;2023-03-04T16:40:58;4.60;99.90
52879;DHT22;38747;53.140;6.498;2023-03-04T16:43:26;4.60;99.90
52879;DHT22;38747;53.140;6.498;2023-03-04T16:45:52;4.60;99.90
52879;DHT22;38747;53.140;6.498;2023-03-04T16:48:18;4.50;99.90
52879;DHT22;38747;53.140;6.498;2023-03-04T16:50:45;4.60;99.90
52879;DHT22;38747;53.140;6.498;2023-03-04T16:53:28;4.60;99.90
52879;DHT22;38747;53.140;6.498;2023-03-04T16:55:53;4.50;99.90
52879;DHT22;38747;53.140;6.498;2023-03-04T16:58:19;4.50;99.90
52879;DHT22;38747;53.140;6.498;2023-03-04T17:00:45;4.50;99.90
52879;DHT22;38747;53.140;6.498;2023-03-04T17:03:11;4.50;99.90
52879;DHT22;38747;53.140;6.498;2023-03-04T17:05:36;4.50;99.90
52879;DHT22;38747;53.140;6.498;2023-03-04T17:08:02;4.50;99.90
52879;DHT22;38747;53.140;6.498;2023-03-04T17:10:28;4.50;99.90
52879;DHT22;38747;53.140;6.498;2023-03-04T17:12:53;4.50;99.90
52879;DHT22;38747;53.140;6.498;2023-03-04T17:15:19;4.50;99.90
52879;DHT22;38747;53.140;6.498;2023-03-04T17:17:45;4.40;99.90
52879;DHT22;38747;53.140;6.498;2023-03-04T17:20:15;4.40;99.90
52879;DHT22;38747;53.140;6.498;2023-03-04T17:22:41;4.30;99.90
52879;DHT22;38747;53.140;6.498;2023-03-04T17:25:07;4.30;99.90
52879;DHT22;38747;53.140;6.498;2023-03-04T17:27:33;4.20;99.90
52879;DHT22;38747;53.140;6.498;2023-03-04T17:29:59;4.20;99.90
52879;DHT22;38747;53.140;6.498;2023-03-04T17:32:25;4.10;99.90
52879;DHT22;38747;53.140;6.498;2023-03-04T17:34:53;4.10;99.90
52879;DHT22;38747;53.140;6.498;2023-03-04T17:37:20;4.10;99.90
52879;DHT22;38747;53.140;6.498;2023-03-04T17:39:46;4.10;99.90
52879;DHT22;38747;53.140;6.498;2023-03-04T17:42:12;4.10;99.90
52879;DHT22;38747;53.140;6.498;2023-03-04T17:44:38;4.00;99.90
52879;DHT22;38747;53.140;6.498;2023-03-04T17:47:04;4.00;99.90
52879;DHT22;38747;53.140;6.498;2023-03-04T17:49:30;4.00;99.90
52879;DHT22;38747;53.140;6.498;2023-03-04T17:51:58;4.00;99.90
52879;DHT22;38747;53.140;6.498;2023-03-04T17:54:24;4.00;99.90
52879;DHT22;38747;53.140;6.498;2023-03-04T17:56:50;4.10;99.90